createdAt,value
2019-03-05T00:02:31.401Z,3.70
2019-03-05T00:05:24.557Z,3.70
2019-03-05T00:08:05.963Z,3.70
2019-03-05T00:10:41.041Z,3.70
2019-03-05T00:13:19.785Z,3.60
2019-03-05T00:15:53.406Z,3.60
2019-03-05T00:18:59.750Z,3.60
2019-03-05T00:21:10.300Z,3.60
2019-03-05T00:24:32.386Z,3.50
2019-03-05T00:27:10.340Z,3.60
2019-03-05T00:30:37.129Z,3.50
2019-03-05T00:33:11.323Z,3.50
2019-03-05T00:36:11.740Z,3.40
2019-03-05T00:39:31.562Z,3.30
2019-03-05T00:42:40.606Z,3.30
2019-03-05T00:45:45.660Z,3.20
2019-03-05T00:49:25.572Z,3.30
2019-03-05T00:52:22.084Z,3.30
2019-03-05T00:55:32.249Z,3.30
2019-03-05T00:58:19.652Z,3.30
2019-03-05T01:01:43.460Z,3.30
2019-03-05T01:04:45.110Z,3.20
2019-03-05T01:07:27.960Z,3.10
2019-03-05T01:09:48.295Z,3.00
2019-03-05T01:12:23.665Z,3.10
2019-03-05T01:15:22.381Z,3.20
2019-03-05T01:18:01.557Z,3.10
2019-03-05T01:25:23.899Z,2.80
2019-03-05T01:26:01.647Z,2.80
2019-03-05T01:28:53.043Z,2.90
2019-03-05T01:31:43.687Z,2.70
2019-03-05T01:35:03.697Z,2.80
2019-03-05T01:37:35.321Z,3.00
2019-03-05T01:40:29.287Z,3.00
2019-03-05T01:43:07.392Z,3.10
2019-03-05T01:45:47.341Z,3.10
2019-03-05T01:48:17.576Z,3.20
2019-03-05T01:50:51.248Z,3.20
2019-03-05T01:53:21.109Z,3.30
2019-03-05T01:56:00.281Z,3.20
2019-03-05T01:58:45.197Z,3.20
2019-03-05T02:04:32.295Z,3.10
2019-03-05T02:07:25.714Z,3.10
2019-03-05T02:09:46.967Z,3.20
2019-03-05T02:12:18.655Z,3.20
2019-03-05T02:14:48.581Z,3.20
2019-03-05T02:17:25.593Z,3.30
2019-03-05T02:20:10.192Z,3.20
2019-03-05T02:23:04.610Z,3.10
2019-03-05T02:26:06.596Z,3.10
2019-03-05T02:29:14.248Z,3.00
2019-03-05T02:32:15.143Z,2.90
2019-03-05T02:35:14.091Z,3.00
2019-03-05T02:38:16.922Z,2.90
2019-03-05T02:41:41.806Z,2.90
2019-03-05T02:44:43.298Z,2.80
2019-03-05T02:47:57.794Z,2.80
2019-03-05T02:51:02.171Z,2.80
2019-03-05T02:54:30.648Z,2.80
2019-03-05T02:57:20.950Z,2.70
2019-03-05T02:59:42.048Z,2.70
2019-03-05T03:02:46.839Z,2.70
2019-03-05T03:05:57.536Z,2.80
2019-03-05T03:08:17.396Z,2.70
2019-03-05T03:10:48.923Z,2.80
2019-03-05T03:13:28.628Z,2.70
2019-03-05T03:15:59.562Z,2.60
2019-03-05T03:18:33.527Z,2.70
2019-03-05T03:21:04.041Z,2.70
2019-03-05T03:23:49.851Z,2.40
2019-03-05T03:26:25.633Z,2.30
2019-03-05T03:28:57.413Z,2.00
2019-03-05T03:31:42.523Z,1.90
2019-03-05T03:33:58.541Z,1.90
2019-03-05T03:36:33.048Z,1.90
2019-03-05T03:39:15.747Z,1.80
2019-03-05T03:41:43.278Z,1.80
2019-03-05T03:44:56.907Z,1.70
2019-03-05T03:46:49.941Z,1.60
2019-03-05T03:49:28.488Z,1.50
2019-03-05T03:52:17.796Z,1.40
2019-03-05T03:56:06.329Z,1.30
2019-03-05T03:57:27.464Z,1.30
2019-03-05T04:00:06.442Z,1.20
2019-03-05T04:02:36.249Z,1.10
2019-03-05T04:05:09.260Z,1.00
2019-03-05T04:07:38.176Z,0.90
2019-03-05T04:10:14.440Z,0.90
2019-03-05T04:12:55.417Z,0.80
2019-03-05T04:15:25.442Z,0.80
2019-03-05T04:18:06.204Z,0.80
2019-03-05T04:20:54.354Z,0.80
2019-03-05T04:23:44.622Z,0.80
2019-03-05T04:26:14.498Z,0.80
2019-03-05T04:40:32.167Z,0.70
2019-03-05T04:43:13.107Z,0.60
2019-03-05T04:46:13.099Z,0.50
2019-03-05T04:49:07.204Z,0.50
2019-03-05T04:51:56.661Z,0.60
2019-03-05T04:54:44.396Z,0.60
2019-03-05T04:57:36.779Z,0.60
2019-03-05T05:00:10.048Z,0.60
2019-03-05T05:02:30.993Z,0.60
2019-03-05T05:05:19.791Z,0.60
2019-03-05T05:07:40.940Z,0.70
2019-03-05T05:10:27.090Z,0.70
2019-03-05T05:12:44.302Z,0.70
2019-03-05T05:15:31.091Z,0.80
2019-03-05T05:18:11.600Z,0.80
2019-03-05T05:21:04.127Z,0.90
2019-03-05T05:24:04.298Z,0.90
2019-03-05T05:26:17.630Z,1.00
2019-03-05T05:29:02.518Z,1.10
2019-03-05T05:31:42.971Z,1.20
2019-03-05T05:34:12.634Z,1.20
2019-03-05T05:37:04.262Z,1.30
2019-03-05T05:40:15.948Z,1.20
2019-03-05T05:42:50.991Z,1.30
2019-03-05T05:45:38.134Z,1.20
2019-03-05T05:48:24.519Z,1.10
2019-03-05T05:51:13.026Z,1.10
2019-03-05T05:56:25.317Z,1.20
2019-03-05T05:59:00.761Z,1.20
2019-03-05T06:01:30.580Z,1.30
2019-03-05T06:04:03.988Z,1.20
2019-03-05T06:06:53.645Z,1.40
2019-03-05T06:09:13.612Z,1.60
2019-03-05T06:11:47.754Z,1.50
2019-03-05T06:14:17.473Z,1.40
2019-03-05T06:16:55.218Z,1.30
2019-03-05T06:19:22.416Z,1.30
2019-03-05T06:22:05.689Z,1.20
2019-03-05T06:24:55.817Z,1.10
2019-03-05T06:27:44.903Z,1.00
2019-03-05T06:30:21.045Z,0.90
2019-03-05T06:32:49.381Z,0.90
2019-03-05T06:35:36.779Z,0.90
2019-03-05T06:38:29.962Z,0.80
2019-03-05T06:41:20.457Z,0.80
2019-03-05T06:44:09.464Z,0.90
2019-03-05T06:46:57.171Z,1.00
2019-03-05T06:49:54.210Z,1.20
2019-03-05T06:52:28.855Z,1.40
2019-03-05T06:55:00.808Z,1.70
2019-03-05T06:57:35.944Z,1.80
2019-03-05T07:00:38.344Z,2.00
2019-03-05T07:03:24.458Z,1.80
2019-03-05T07:06:27.527Z,1.70
2019-03-05T07:09:13.655Z,1.90
2019-03-05T07:12:13.540Z,2.00
2019-03-05T07:15:20.452Z,2.10
2019-03-05T07:17:55.095Z,2.10
2019-03-05T07:21:04.840Z,2.10
2019-03-05T07:24:11.878Z,2.10
2019-03-05T07:26:51.911Z,2.20
2019-03-05T07:29:32.333Z,2.20
2019-03-05T07:32:19.999Z,2.20
2019-03-05T07:34:40.659Z,2.20
2019-03-05T07:37:12.525Z,2.30
2019-03-05T07:39:47.836Z,2.30
2019-03-05T07:42:47.385Z,2.30
2019-03-05T07:45:26.681Z,2.30
2019-03-05T07:47:56.532Z,2.30
2019-03-05T07:50:32.377Z,2.50
2019-03-05T07:53:10.973Z,2.60
2019-03-05T07:55:41.671Z,2.60
2019-03-05T07:58:22.244Z,2.70
2019-03-05T08:00:56.277Z,2.90
2019-03-05T08:03:31.445Z,3.30
2019-03-05T08:05:56.864Z,3.70
2019-03-05T08:09:02.316Z,4.00
2019-03-05T08:11:37.556Z,4.10
2019-03-05T08:15:00.706Z,4.20
2019-03-05T08:17:41.585Z,4.40
2019-03-05T08:20:15.841Z,4.50
2019-03-05T08:22:53.356Z,4.60
2019-03-05T08:25:30.380Z,4.70
2019-03-05T08:28:01.874Z,5.20
2019-03-05T08:31:02.542Z,5.20
2019-03-05T08:33:29.703Z,5.20
2019-03-05T08:36:03.094Z,5.50
2019-03-05T08:38:34.093Z,5.70
2019-03-05T08:41:09.693Z,5.90
2019-03-05T08:43:39.480Z,5.80
2019-03-05T08:46:34.110Z,5.80
2019-03-05T08:49:03.889Z,6.00
2019-03-05T08:51:38.424Z,6.10
2019-03-05T08:54:14.179Z,6.10
2019-03-05T08:56:52.959Z,6.20
2019-03-05T08:59:23.773Z,6.40
2019-03-05T09:02:23.995Z,6.90
2019-03-05T09:04:36.337Z,6.90
2019-03-05T09:07:24.122Z,6.80
2019-03-05T09:09:55.276Z,7.00
2019-03-05T09:12:59.813Z,7.30
2019-03-05T09:15:00.601Z,7.30
2019-03-05T09:17:42.791Z,7.40
2019-03-05T09:20:26.940Z,7.50
2019-03-05T09:23:27.494Z,7.50
2019-03-05T09:25:33.220Z,7.70
2019-03-05T09:28:03.470Z,7.90
2019-03-05T09:30:37.767Z,8.30
2019-03-05T09:33:30.753Z,8.20
2019-03-05T09:36:08.710Z,8.10
2019-03-05T09:38:55.675Z,8.70
2019-03-05T09:41:43.707Z,8.90
2019-03-05T09:44:23.798Z,8.60
2019-03-05T09:46:59.005Z,8.70
2019-03-05T09:49:42.921Z,8.50
2019-03-05T09:52:09.895Z,8.20
2019-03-05T09:54:42.199Z,8.00
2019-03-05T09:57:17.337Z,8.10
2019-03-05T10:00:08.991Z,8.10
2019-03-05T10:02:44.292Z,8.30
2019-03-05T10:05:36.865Z,8.90
2019-03-05T10:08:12.017Z,9.20
2019-03-05T10:11:10.297Z,9.40
2019-03-05T10:13:40.574Z,9.50
2019-03-05T10:16:25.429Z,9.70
2019-03-05T10:19:04.784Z,9.20
2019-03-05T10:21:46.808Z,8.90
2019-03-05T10:24:34.239Z,9.00
2019-03-05T10:27:18.599Z,9.00
2019-03-05T10:30:02.133Z,9.00
2019-03-05T10:32:45.814Z,9.00
2019-03-05T10:35:32.074Z,9.10
2019-03-05T10:38:12.179Z,9.20
2019-03-05T10:41:08.684Z,9.20
2019-03-05T10:43:45.548Z,9.20
2019-03-05T10:46:29.696Z,9.50
2019-03-05T10:49:10.724Z,10.00
2019-03-05T10:51:59.731Z,10.00
2019-03-05T10:54:43.262Z,10.00
2019-03-05T10:57:25.721Z,9.80
2019-03-05T11:00:08.455Z,9.20
2019-03-05T11:02:52.915Z,8.90
2019-03-05T11:05:45.454Z,8.90
2019-03-05T11:08:29.502Z,8.90
2019-03-05T11:11:21.376Z,8.80
2019-03-05T11:13:51.167Z,8.80
2019-03-05T11:16:43.841Z,8.90
2019-03-05T11:19:06.333Z,8.90
2019-03-05T11:21:54.273Z,9.00
2019-03-05T11:24:23.619Z,9.10
2019-03-05T11:27:16.360Z,9.40
2019-03-05T11:29:35.510Z,9.40
2019-03-05T11:32:24.475Z,9.70
2019-03-05T11:34:56.138Z,9.90
2019-03-05T11:37:28.416Z,10.30
2019-03-05T11:39:58.426Z,10.50
2019-03-05T11:42:28.342Z,10.10
2019-03-05T11:45:07.410Z,10.00
2019-03-05T11:47:35.352Z,9.70
2019-03-05T11:50:14.802Z,9.50
2019-03-05T11:52:56.093Z,9.50
2019-03-05T11:55:32.859Z,9.50
2019-03-05T11:58:05.850Z,9.50
2019-03-05T12:00:58.275Z,9.50
2019-03-05T12:03:29.179Z,9.60
2019-03-05T12:06:01.907Z,9.60
2019-03-05T12:08:34.020Z,9.60
2019-03-05T12:11:23.952Z,9.60
2019-03-05T12:14:02.255Z,9.70
2019-03-05T12:16:34.632Z,9.80
2019-03-05T12:19:09.261Z,9.90
2019-03-05T12:21:41.831Z,10.00
2019-03-05T12:24:19.982Z,9.90
2019-03-05T12:26:53.632Z,10.00
2019-03-05T12:29:34.513Z,10.10
2019-03-05T12:32:32.804Z,10.30
2019-03-05T12:35:26.273Z,10.40
2019-03-05T12:37:52.193Z,10.30
2019-03-05T12:40:23.631Z,10.30
2019-03-05T12:43:35.374Z,10.40
2019-03-05T12:45:50.539Z,10.50
2019-03-05T12:48:21.486Z,10.70
2019-03-05T12:51:18.482Z,10.50
2019-03-05T12:53:48.429Z,10.50
2019-03-05T12:56:26.978Z,10.50
2019-03-05T12:59:11.608Z,10.60
2019-03-05T13:01:31.076Z,10.60
2019-03-05T13:04:03.855Z,10.70
2019-03-05T13:06:37.853Z,10.70
2019-03-05T13:09:19.568Z,10.70
2019-03-05T13:11:58.175Z,10.80
2019-03-05T13:14:28.025Z,11.00
2019-03-05T13:16:57.972Z,11.00
2019-03-05T13:19:29.277Z,10.90
2019-03-05T13:22:10.631Z,10.80
2019-03-05T13:24:46.913Z,10.90
2019-03-05T13:27:24.200Z,10.90
2019-03-05T13:30:10.267Z,11.00
2019-03-05T13:32:33.644Z,11.10
2019-03-05T13:40:30.271Z,11.20
2019-03-05T13:43:26.748Z,11.10
2019-03-05T13:45:49.202Z,11.10
2019-03-05T13:49:01.205Z,11.00
2019-03-05T13:52:14.041Z,11.10
2019-03-05T13:55:32.398Z,11.30
2019-03-05T13:58:42.005Z,11.50
2019-03-05T14:01:20.983Z,11.20
2019-03-05T14:04:07.225Z,11.50
2019-03-05T14:07:30.833Z,11.40
2019-03-05T14:10:05.029Z,11.40
2019-03-05T14:12:40.879Z,11.30
2019-03-05T14:15:29.044Z,11.40
2019-03-05T14:18:00.961Z,11.30
2019-03-05T14:20:35.250Z,11.20
2019-03-05T14:23:53.258Z,11.20
2019-03-05T14:26:47.333Z,11.10
2019-03-05T14:28:58.101Z,11.10
2019-03-05T14:31:45.638Z,11.20
2019-03-05T14:34:16.767Z,11.20
2019-03-05T14:36:53.959Z,11.00
2019-03-05T14:39:29.539Z,11.00
2019-03-05T14:42:08.573Z,10.90
2019-03-05T14:44:40.337Z,10.80
2019-03-05T14:47:13.315Z,10.70
2019-03-05T14:52:36.007Z,10.70
2019-03-05T14:53:26.157Z,10.70
2019-03-05T14:55:10.683Z,10.80
2019-03-05T14:57:47.247Z,10.70
2019-03-05T15:00:18.700Z,10.70
2019-03-05T15:02:51.365Z,10.60
2019-03-05T15:05:56.180Z,10.60
2019-03-05T15:08:18.896Z,10.60
2019-03-05T15:11:19.071Z,10.70
2019-03-05T15:13:54.909Z,10.60
2019-03-05T15:16:28.779Z,10.50
2019-03-05T15:19:21.430Z,10.50
2019-03-05T15:21:52.001Z,10.40
2019-03-05T15:24:24.455Z,10.30
2019-03-05T15:26:59.146Z,10.30
2019-03-05T15:29:33.167Z,10.30
2019-03-05T15:34:56.779Z,10.30
2019-03-05T15:37:28.126Z,10.30
2019-03-05T15:42:01.021Z,10.20
2019-03-05T15:42:39.692Z,10.20
2019-03-05T15:45:12.794Z,10.20
2019-03-05T15:48:01.641Z,10.20
2019-03-05T15:50:41.153Z,10.20
2019-03-05T15:53:14.074Z,10.10
2019-03-05T15:55:51.190Z,10.10
2019-03-05T15:58:20.860Z,10.00
2019-03-05T16:00:57.881Z,10.00
2019-03-05T16:03:58.592Z,9.90
2019-03-05T16:06:30.024Z,9.90
2019-03-05T16:09:06.601Z,9.90
2019-03-05T16:11:48.715Z,9.80
2019-03-05T16:14:18.521Z,9.80
2019-03-05T16:17:09.847Z,9.70
2019-03-05T16:19:43.843Z,9.70
2019-03-05T16:28:10.919Z,9.60
2019-03-05T16:31:21.615Z,9.60
2019-03-05T16:34:40.807Z,9.60
2019-03-05T16:37:21.131Z,9.60
2019-03-05T16:40:01.014Z,9.60
2019-03-05T16:42:59.953Z,9.60
2019-03-05T16:46:00.518Z,9.50
2019-03-05T16:48:41.377Z,9.50
2019-03-05T16:51:31.437Z,9.50
2019-03-05T16:54:25.353Z,9.40
2019-03-05T16:57:09.802Z,9.40
2019-03-05T16:59:53.340Z,9.40
2019-03-05T17:03:05.344Z,9.30
2019-03-05T17:05:32.637Z,9.30
2019-03-05T17:08:29.687Z,9.30
2019-03-05T17:11:17.209Z,9.30
2019-03-05T17:17:18.916Z,9.20
2019-03-05T17:19:49.616Z,9.20
2019-03-05T17:22:58.907Z,9.20
2019-03-05T17:36:24.354Z,9.00
2019-03-05T17:39:05.225Z,9.00
2019-03-05T22:51:29.575Z,8.90
2019-03-05T22:54:03.258Z,8.80
2019-03-05T22:56:33.471Z,8.90
2019-03-05T22:59:06.996Z,8.90
2019-03-05T23:01:49.307Z,8.90
2019-03-05T23:04:23.828Z,8.80
2019-03-05T23:07:01.206Z,8.90
2019-03-05T23:09:35.896Z,8.90
2019-03-05T23:12:08.721Z,8.90
2019-03-05T23:14:39.071Z,8.90
2019-03-05T23:17:15.413Z,8.90
2019-03-05T23:19:48.408Z,8.90
2019-03-05T23:22:20.581Z,8.90
2019-03-05T23:24:50.704Z,8.90
2019-03-05T23:27:25.317Z,8.90
2019-03-05T23:29:55.709Z,8.80
2019-03-05T23:32:25.909Z,8.80
2019-03-05T23:34:56.598Z,8.80
2019-03-05T23:37:32.259Z,8.80
2019-03-05T23:40:08.038Z,8.80
2019-03-05T23:42:35.461Z,8.80
2019-03-05T23:45:08.505Z,8.80
2019-03-05T23:47:46.866Z,8.80
2019-03-05T23:50:35.244Z,8.80
2019-03-05T23:52:55.885Z,8.70
2019-03-05T23:55:29.309Z,8.70
2019-03-05T23:57:59.660Z,8.70
